Skip Navigation LinksHome page > Weather > Current weather Skip Navigation Links

Current Weather

New Tokyo International (Narita), Tokyo

For information only: do not use for flight planning or navigation.
Latest weather
Observation time Monday, September 26, 2016 5:30 PM JST
Local time Monday, September 26, 2016 5:51 PM JST
Flight conditions Low Instrument Meteorological Conditions
Winds
Wind direction East-Northeast (60°)
Wind speed 8 mph
Visibility 2.5 mi.
Present weather mist
Sky condition
Ceiling 0 ft. broken clouds
Cloud layer broken clouds 0 ft.
Cloud layer few clouds 300 ft.
Cloud layer broken clouds 500 ft.
Temperature 75°F
Dewpoint 73°F
Altimeter 30.09 in.Hg
Derived measurements
Relative humidity 94%
Density altitude 1372 ft.
METAR RJAA 260830Z 06007KT 4000 BR FEW003 BKN005 BKN/// 24/23 Q1019 BECMG 08006KT RMK 1ST003 5ST005 A3012

Settings

Location code

InnerDrive.Weather 4.0.5722.1 Release CLR 4.0.30319.34209
Copyright ©2015 Inner Drive Technology. All rights reserved. Portions Copyright ©1986-2015 David Braverman.

Find weather

Site navigation


Skip Navigation Links

Place info

Page info

PayPal - The safer, easier way to pay online!

Return home.

Copyright ©2016 Inner Drive Technology. Purveyors of fine, hand-crafted computer software. Page printed 2016-09-26T08:51:44 UTC.